Aviation Digital Data Service (ADDS)

Output produced by METARs form (0922 UTC 24 March 2019)
found at http://www.aviationweather.gov/metar/data/
 
METAR text: VOPB 240900Z 08010KT 5000 HZ FEW018 33/18 Q1008 NOSIG
Conditions at: VOPB (PORT BLAIR , IN) observed 0900 UTC 24 March 2019
Temperature: 33.0°C (91°F)
Dewpoint: 18.0°C (64°F) [RH = 41%]
Pressure (altimeter): 29.76 inches Hg (1008.0 mb)
Winds: from the E (80 degrees) at 12 MPH (10 knots; 5.1 m/s)
Visibility: 3 miles ( 5 km)
Ceiling: at least 12,000 feet AGL
Clouds: few clouds at 1800 feet AGL
Weather: HZ  (haze)

METAR text: VOPB 240800Z 05010KT 5000 HZ FEW018 34/18 Q1009 NOSIG
Conditions at: VOPB (PORT BLAIR , IN) observed 0800 UTC 24 March 2019
Temperature: 34.0°C (93°F)
Dewpoint: 18.0°C (64°F) [RH = 39%]
Pressure (altimeter): 29.79 inches Hg (1009.0 mb)
Winds: from the NE (50 degrees) at 12 MPH (10 knots; 5.1 m/s)
Visibility: 3 miles ( 5 km)
Ceiling: at least 12,000 feet AGL
Clouds: few clouds at 1800 feet AGL
Weather: HZ  (haze)

METAR text: VOPB 240700Z 07007KT 5000 HZ FEW018 FEW220 33/18 Q1009 NOSIG
Conditions at: VOPB (PORT BLAIR , IN) observed 0700 UTC 24 March 2019
Temperature: 33.0°C (91°F)
Dewpoint: 18.0°C (64°F) [RH = 41%]
Pressure (altimeter): 29.79 inches Hg (1009.0 mb)
Winds: from the ENE (70 degrees) at 8 MPH (7 knots; 3.6 m/s)
Visibility: 3 miles ( 5 km)
Ceiling: at least 12,000 feet AGL
Clouds: few clouds at 1800 feet AGL
few clouds at 22000 feet AGL
Weather: HZ  (haze)

METAR text: VOPB 240600Z 08006KT 5000 HZ FEW220 33/21 Q1010 NOSIG
Conditions at: VOPB (PORT BLAIR , IN) observed 0600 UTC 24 March 2019
Temperature: 33.0°C (91°F)
Dewpoint: 21.0°C (70°F) [RH = 49%]
Pressure (altimeter): 29.82 inches Hg (1010.0 mb)
Winds: from the E (80 degrees) at 7 MPH (6 knots; 3.1 m/s)
Visibility: 3 miles ( 5 km)
Ceiling: at least 12,000 feet AGL
Clouds: few clouds at 22000 feet AGL
Weather: HZ  (haze)

METAR text: VOPB 240500Z VRB02KT 5000 HZ FEW220 32/20 Q1011 NOSIG
Conditions at: VOPB (PORT BLAIR , IN) observed 0500 UTC 24 March 2019
Temperature: 32.0°C (90°F)
Dewpoint: 20.0°C (68°F) [RH = 49%]
Pressure (altimeter): 29.85 inches Hg (1011.0 mb)
Winds: variable direction winds at 2 MPH (2 knots; 1.0 m/s)
Visibility: 3 miles ( 5 km)
Ceiling: at least 12,000 feet AGL
Clouds: few clouds at 22000 feet AGL
Weather: HZ  (haze)

METAR text: VOPB 240400Z 30004KT 5000 HZ FEW220 31/21 Q1012 NOSIG
Conditions at: VOPB (PORT BLAIR , IN) observed 0400 UTC 24 March 2019
Temperature: 31.0°C (88°F)
Dewpoint: 21.0°C (70°F) [RH = 55%]
Pressure (altimeter): 29.88 inches Hg (1012.0 mb)
Winds: from the WNW (300 degrees) at 5 MPH (4 knots; 2.1 m/s)
Visibility: 3 miles ( 5 km)
Ceiling: at least 12,000 feet AGL
Clouds: few clouds at 22000 feet AGL
Weather: HZ  (haze)

METAR text: VOPB 240300Z VRB02KT 4000 HZ FEW220 29/23 Q1012 NOSIG
Conditions at: VOPB (PORT BLAIR , IN) observed 0300 UTC 24 March 2019
Temperature: 29.0°C (84°F)
Dewpoint: 23.0°C (73°F) [RH = 70%]
Pressure (altimeter): 29.88 inches Hg (1012.0 mb)
Winds: variable direction winds at 2 MPH (2 knots; 1.0 m/s)
Visibility: 2.49 miles (4.01 km)
Ceiling: at least 12,000 feet AGL
Clouds: few clouds at 22000 feet AGL
Weather: HZ  (haze)

METAR text: VOPB 240200Z VRB02KT 3500 BR FEW220 28/24 Q1012 NOSIG
Conditions at: VOPB (PORT BLAIR , IN) observed 0200 UTC 24 March 2019
Temperature: 28.0°C (82°F)
Dewpoint: 24.0°C (75°F) [RH = 79%]
Pressure (altimeter): 29.88 inches Hg (1012.0 mb)
Winds: variable direction winds at 2 MPH (2 knots; 1.0 m/s)
Visibility: 2.17 miles (3.49 km)
Ceiling: at least 12,000 feet AGL
Clouds: few clouds at 22000 feet AGL
Weather: BR  (mist)

METAR text: VOPB 230800Z 11009KT 5000 HZ FEW018 32/22 Q1009 NOSIG
Conditions at: VOPB (PORT BLAIR , IN) observed 0800 UTC 23 March 2019
Temperature: 32.0°C (90°F)
Dewpoint: 22.0°C (72°F) [RH = 56%]
Pressure (altimeter): 29.79 inches Hg (1009.0 mb)
Winds: from the ESE (110 degrees) at 10 MPH (9 knots; 4.6 m/s)
Visibility: 3 miles ( 5 km)
Ceiling: at least 12,000 feet AGL
Clouds: few clouds at 1800 feet AGL
Weather: HZ  (haze)

METAR text: VOPB 230500Z 07009KT 5000 HZ FEW220 32/21 Q1012 NOSIG
Conditions at: VOPB (PORT BLAIR , IN) observed 0500 UTC 23 March 2019
Temperature: 32.0°C (90°F)
Dewpoint: 21.0°C (70°F) [RH = 52%]
Pressure (altimeter): 29.88 inches Hg (1012.0 mb)
Winds: from the ENE (70 degrees) at 10 MPH (9 knots; 4.6 m/s)
Visibility: 3 miles ( 5 km)
Ceiling: at least 12,000 feet AGL
Clouds: few clouds at 22000 feet AGL
Weather: HZ  (haze)

METAR text: VOPB 230400Z 02004KT 5000 HZ FEW220 31/21 Q1012 NOSIG
Conditions at: VOPB (PORT BLAIR , IN) observed 0400 UTC 23 March 2019
Temperature: 31.0°C (88°F)
Dewpoint: 21.0°C (70°F) [RH = 55%]
Pressure (altimeter): 29.88 inches Hg (1012.0 mb)
Winds: from the NNE (20 degrees) at 5 MPH (4 knots; 2.1 m/s)
Visibility: 3 miles ( 5 km)
Ceiling: at least 12,000 feet AGL
Clouds: few clouds at 22000 feet AGL
Weather: HZ  (haze)

METAR text: VOPB 230300Z 35005KT 4500 HZ FEW220 29/23 Q1012 NOSIG
Conditions at: VOPB (PORT BLAIR , IN) observed 0300 UTC 23 March 2019
Temperature: 29.0°C (84°F)
Dewpoint: 23.0°C (73°F) [RH = 70%]
Pressure (altimeter): 29.88 inches Hg (1012.0 mb)
Winds: from the N (350 degrees) at 6 MPH (5 knots; 2.6 m/s)
Visibility: 2.80 miles (4.51 km)
Ceiling: at least 12,000 feet AGL
Clouds: few clouds at 22000 feet AGL
Weather: HZ  (haze)

METAR text: VOPB 230200Z 35006KT 4500 BR FEW220 28/24 Q1012 NOSIG
Conditions at: VOPB (PORT BLAIR , IN) observed 0200 UTC 23 March 2019
Temperature: 28.0°C (82°F)
Dewpoint: 24.0°C (75°F) [RH = 79%]
Pressure (altimeter): 29.88 inches Hg (1012.0 mb)
Winds: from the N (350 degrees) at 7 MPH (6 knots; 3.1 m/s)
Visibility: 2.80 miles (4.51 km)
Ceiling: at least 12,000 feet AGL
Clouds: few clouds at 22000 feet AGL
Weather: BR  (mist)

METAR text: VOPB 230100Z VRB02KT 3500 BR FEW018 24/23 Q1011 NOSIG
Conditions at: VOPB (PORT BLAIR , IN) observed 0100 UTC 23 March 2019
Temperature: 24.0°C (75°F)
Dewpoint: 23.0°C (73°F) [RH = 94%]
Pressure (altimeter): 29.85 inches Hg (1011.0 mb)
Winds: variable direction winds at 2 MPH (2 knots; 1.0 m/s)
Visibility: 2.17 miles (3.49 km)
Ceiling: at least 12,000 feet AGL
Clouds: few clouds at 1800 feet AGL
Weather: BR  (mist)

METAR text: VOPB 230000Z VRB02KT 3000 BR FEW018 23/22 Q1010 NOSIG
Conditions at: VOPB (PORT BLAIR , IN) observed 0000 UTC 23 March 2019
Temperature: 23.0°C (73°F)
Dewpoint: 22.0°C (72°F) [RH = 94%]
Pressure (altimeter): 29.82 inches Hg (1010.0 mb)
Winds: variable direction winds at 2 MPH (2 knots; 1.0 m/s)
Visibility: 1.86 miles (2.99 km)
Ceiling: at least 12,000 feet AGL
Clouds: few clouds at 1800 feet AGL
Weather: BR  (mist)

Forecast for: VOPB (PORT BLAIR , IN)
Text: TAF VOPB 240300Z 2406/2415 08010KT 5000 HZ FEW016 SCT220
Forecast period: 0600 to 1200 UTC 24 March 2019
Forecast type: FROM: standard forecast or significant change
Winds: from the E (80 degrees) at 12 MPH (10 knots; 5.1 m/s)
Visibility: 3 miles (5 km)
Ceiling: at least 12,000 feet AGL
Clouds: few clouds at 1600 feet AGL
scattered clouds at 22000 feet AGL
Weather: HZ  (haze)
Text: BECMG 2412/2413 VRB02KT 3500 BR
Forecast period: 1200 to 1500 UTC 24 March 2019
Forecast type: BECOMING: Conditions expected to become as follows by 1300 UTC 24 March 2019
Winds: variable direction winds at 2 MPH (2 knots; 1.0 m/s)
Visibility: 2.17 miles (3.49 km)
Ceiling: at least 12,000 feet AGL
Clouds: few clouds at 1600 feet AGL
scattered clouds at 22000 feet AGL
Weather: BR  (mist)